Date,TemperatureHighF,TemperatureAvgF,TemperatureLowF,DewpointHighF,DewpointAvgF,DewpointLowF,HumidityHigh,HumidityAvg,HumidityLow,PressureMaxIn,PressureMinIn,WindSpeedMaxMPH,WindSpeedAvgMPH,GustSpeedMaxMPH,PrecipitationSumIn
2013-1-1,38.0,34.2,30.0,36.2,32.4,28.1,94,93,93,18.62,18.62,7,0,7,0.01
2013-1-2,36.3,30.1,22.3,28.4,21.8,18.2,84,71,61,21.06,16.57,4,0,4,0.00
2013-1-3,43.9,29.7,18.6,33.4,22.7,15.3,91,77,55,16.57,16.57,4,0,4,0.00
2013-1-7,53.9,51.0,45.2,31.7,29.5,26.6,49,44,40,18.08,17.75,6,0,6,0.00
2013-1-8,58.9,52.1,47.2,44.9,43.2,38.3,91,73,54,18.23,17.69,7,0,7,0.27
2013-1-9,53.7,49.9,46.8,47.3,43.8,38.4,94,80,60,17.52,16.72,17,1,17,0.05
2013-1-10,58.2,50.5,45.8,55.6,47.0,40.0,92,88,67,22.31,17.52,12,1,12,0.09
2013-1-11,65.3,54.0,43.9,48.2,45.5,41.4,92,75,51,25.36,22.31,14,1,14,0.00
2013-1-13,27.5,23.4,16.1,22.1,18.3,12.7,86,81,76,0.00,40.00,0,0,0,0.01
2013-1-14,28.4,16.7,12.8,19.1,12.9,9.7,98,85,61,17.72,17.72,0,0,0,0.00
2013-1-15,35.2,31.1,22.0,23.3,19.8,16.0,81,64,46,17.59,17.20,5,0,5,0.00
2013-1-16,43.7,28.7,14.5,25.1,18.4,11.1,92,68,44,25.84,17.59,3,0,3,0.01
2013-1-17,48.1,34.4,22.4,34.6,25.4,17.5,89,71,52,26.50,20.91,11,0,11,0.00
2013-1-18,56.4,39.1,22.4,35.0,27.2,18.8,91,65,38,26.04,17.00,10,0,10,0.00
2013-1-19,63.5,49.3,38.4,39.6,34.3,27.8,76,57,41,26.07,17.60,7,0,7,0.00
2013-1-20,59.6,43.4,27.0,38.2,31.1,23.1,90,65,40,26.61,19.01,7,0,7,0.00
2013-1-21,40.4,32.6,23.9,18.5,16.9,15.4,70,53,39,22.09,18.24,9,0,9,0.00
2013-1-22,47.0,32.8,19.5,28.3,21.4,14.0,82,64,47,22.09,17.35,9,0,9,0.00
2013-1-23,61.6,42.6,23.9,45.4,33.4,19.8,87,71,54,26.19,17.35,6,0,6,0.00
2013-1-24,43.7,38.6,35.3,33.8,23.8,18.5,73,55,44,25.75,20.06,10,1,10,0.00
2013-1-25,51.0,39.0,31.1,36.8,30.6,27.5,91,73,50,21.15,19.41,6,0,6,0.00
2013-1-26,61.1,45.6,31.4,33.1,27.5,24.3,85,53,27,22.67,18.18,6,0,6,0.00
2013-1-27,60.0,51.4,46.4,53.4,44.6,33.1,88,78,58,22.67,22.67,13,1,13,0.00
2013-1-28,70.7,68.0,66.1,61.2,60.9,60.5,83,78,72,0.00,40.00,1,1,0,0.00
2013-1-29,68.1,65.2,55.8,63.0,60.4,52.9,92,85,81,29.43,27.13,2,1,0,1.37